sensor_id;sensor_type;location;lat;lon;timestamp;pressure;altitude;pressure_sealevel;temperature;humidity
42519;BME280;28147;47.520;18.920;2023-09-19T00:00:01;97973.50;;;25.76;47.26
42519;BME280;28147;47.520;18.920;2023-09-19T00:02:26;97970.88;;;25.92;46.95
42519;BME280;28147;47.520;18.920;2023-09-19T00:04:52;97979.78;;;25.40;48.18
42519;BME280;28147;47.520;18.920;2023-09-19T00:07:19;97980.44;;;25.86;46.96
42519;BME280;28147;47.520;18.920;2023-09-19T00:09:44;97983.16;;;25.73;47.41
42519;BME280;28147;47.520;18.920;2023-09-19T00:12:10;97976.88;;;25.98;47.01
42519;BME280;28147;47.520;18.920;2023-09-19T00:14:38;97973.72;;;25.83;47.04
42519;BME280;28147;47.520;18.920;2023-09-19T00:17:04;97962.94;;;25.87;47.10
42519;BME280;28147;47.520;18.920;2023-09-19T00:19:31;97980.56;;;25.53;48.29
42519;BME280;28147;47.520;18.920;2023-09-19T00:21:57;97962.72;;;25.67;47.69
42519;BME280;28147;47.520;18.920;2023-09-19T00:24:23;97973.09;;;26.14;46.75
42519;BME280;28147;47.520;18.920;2023-09-19T00:26:49;97962.88;;;26.11;46.49
42519;BME280;28147;47.520;18.920;2023-09-19T00:29:14;97975.19;;;25.93;47.39
42519;BME280;28147;47.520;18.920;2023-09-19T00:31:44;97968.47;;;25.90;47.05
42519;BME280;28147;47.520;18.920;2023-09-19T00:34:09;97965.94;;;26.66;45.88
42519;BME280;28147;47.520;18.920;2023-09-19T00:36:36;97973.63;;;26.92;45.28
42519;BME280;28147;47.520;18.920;2023-09-19T00:39:04;97968.75;;;26.69;45.64
42519;BME280;28147;47.520;18.920;2023-09-19T00:41:31;97971.06;;;26.83;45.22
42519;BME280;28147;47.520;18.920;2023-09-19T00:43:57;97969.78;;;27.09;45.22
42519;BME280;28147;47.520;18.920;2023-09-19T00:46:22;97969.13;;;27.00;44.97
42519;BME280;28147;47.520;18.920;2023-09-19T00:48:48;97958.47;;;27.10;45.17
42519;BME280;28147;47.520;18.920;2023-09-19T00:51:15;97958.31;;;27.19;45.09
42519;BME280;28147;47.520;18.920;2023-09-19T00:53:45;97960.72;;;27.21;44.99
42519;BME280;28147;47.520;18.920;2023-09-19T00:56:11;97960.50;;;26.98;45.14
42519;BME280;28147;47.520;18.920;2023-09-19T00:58:37;97961.41;;;27.17;44.90
42519;BME280;28147;47.520;18.920;2023-09-19T01:01:04;97969.94;;;27.16;45.26
42519;BME280;28147;47.520;18.920;2023-09-19T01:03:36;97967.66;;;27.02;45.94
42519;BME280;28147;47.520;18.920;2023-09-19T01:06:02;97965.72;;;27.03;45.66
42519;BME280;28147;47.520;18.920;2023-09-19T01:08:28;97973.44;;;27.01;45.73
42519;BME280;28147;47.520;18.920;2023-09-19T01:11:09;97966.88;;;27.17;45.01
42519;BME280;28147;47.520;18.920;2023-09-19T01:14:03;97961.03;;;26.87;45.69
42519;BME280;28147;47.520;18.920;2023-09-19T01:16:38;97962.78;;;26.96;45.69
42519;BME280;28147;47.520;18.920;2023-09-19T01:22:03;97971.00;;;26.96;45.58
42519;BME280;28147;47.520;18.920;2023-09-19T01:29:42;97963.69;;;26.28;47.19
42519;BME280;28147;47.520;18.920;2023-09-19T01:32:11;97961.34;;;26.54;46.67
42519;BME280;28147;47.520;18.920;2023-09-19T01:34:48;97962.69;;;26.76;46.47
42519;BME280;28147;47.520;18.920;2023-09-19T01:37:18;97953.44;;;26.81;46.52
42519;BME280;28147;47.520;18.920;2023-09-19T01:40:00;97951.78;;;26.76;46.81
42519;BME280;28147;47.520;18.920;2023-09-19T01:42:48;97948.25;;;26.76;46.50
42519;BME280;28147;47.520;18.920;2023-09-19T01:47:53;97949.53;;;26.66;47.07
42519;BME280;28147;47.520;18.920;2023-09-19T01:52:54;97949.75;;;26.45;47.71
42519;BME280;28147;47.520;18.920;2023-09-19T01:55:26;97942.06;;;26.35;47.65
42519;BME280;28147;47.520;18.920;2023-09-19T01:58:10;97948.22;;;26.32;48.19
42519;BME280;28147;47.520;18.920;2023-09-19T02:00:41;97951.38;;;26.18;48.50
42519;BME280;28147;47.520;18.920;2023-09-19T02:03:09;97947.03;;;26.17;48.38
42519;BME280;28147;47.520;18.920;2023-09-19T02:05:35;97953.44;;;26.09;48.23
42519;BME280;28147;47.520;18.920;2023-09-19T02:08:00;97947.53;;;26.07;48.70
42519;BME280;28147;47.520;18.920;2023-09-19T02:10:26;97947.88;;;26.05;48.29
42519;BME280;28147;47.520;18.920;2023-09-19T02:12:52;97948.28;;;26.19;48.36
42519;BME280;28147;47.520;18.920;2023-09-19T02:15:18;97948.81;;;26.25;48.16
42519;BME280;28147;47.520;18.920;2023-09-19T02:17:43;97959.59;;;26.34;47.67
42519;BME280;28147;47.520;18.920;2023-09-19T02:20:10;97954.59;;;26.64;46.79
42519;BME280;28147;47.520;18.920;2023-09-19T02:22:41;97949.31;;;26.71;46.43
42519;BME280;28147;47.520;18.920;2023-09-19T02:25:07;97942.44;;;26.77;46.14
42519;BME280;28147;47.520;18.920;2023-09-19T02:27:33;97948.94;;;26.73;46.52
42519;BME280;28147;47.520;18.920;2023-09-19T02:29:58;97954.56;;;26.36;47.44
42519;BME280;28147;47.520;18.920;2023-09-19T02:32:24;97954.94;;;26.34;47.72
42519;BME280;28147;47.520;18.920;2023-09-19T02:34:49;97952.19;;;26.34;47.86
42519;BME280;28147;47.520;18.920;2023-09-19T02:37:17;97953.63;;;26.16;48.03
42519;BME280;28147;47.520;18.920;2023-09-19T02:39:44;97952.28;;;26.10;48.77
42519;BME280;28147;47.520;18.920;2023-09-19T02:42:09;97940.56;;;26.09;48.89
42519;BME280;28147;47.520;18.920;2023-09-19T02:44:35;97940.94;;;26.08;48.67
42519;BME280;28147;47.520;18.920;2023-09-19T02:47:00;97930.31;;;26.18;48.19
42519;BME280;28147;47.520;18.920;2023-09-19T02:49:26;97934.16;;;26.30;47.80
42519;BME280;28147;47.520;18.920;2023-09-19T02:51:51;97939.88;;;25.84;49.15
42519;BME280;28147;47.520;18.920;2023-09-19T02:54:17;97940.09;;;26.19;47.91
42519;BME280;28147;47.520;18.920;2023-09-19T02:56:43;97947.44;;;26.03;48.33
42519;BME280;28147;47.520;18.920;2023-09-19T02:59:09;97942.34;;;26.17;48.01
42519;BME280;28147;47.520;18.920;2023-09-19T03:01:35;97944.44;;;25.80;48.93
42519;BME280;28147;47.520;18.920;2023-09-19T03:04:01;97947.16;;;25.80;49.06
42519;BME280;28147;47.520;18.920;2023-09-19T03:06:27;97936.03;;;25.61;49.77
42519;BME280;28147;47.520;18.920;2023-09-19T03:08:56;97947.25;;;25.71;49.83
42519;BME280;28147;47.520;18.920;2023-09-19T03:11:22;97935.34;;;25.64;49.69
42519;BME280;28147;47.520;18.920;2023-09-19T03:13:54;97944.63;;;25.75;49.38
42519;BME280;28147;47.520;18.920;2023-09-19T03:16:19;97945.81;;;25.62;49.78
42519;BME280;28147;47.520;18.920;2023-09-19T03:18:47;97947.50;;;25.42;50.29
42519;BME280;28147;47.520;18.920;2023-09-19T03:21:15;97954.25;;;25.32;50.78
42519;BME280;28147;47.520;18.920;2023-09-19T03:23:40;97959.22;;;25.55;49.98
42519;BME280;28147;47.520;18.920;2023-09-19T03:26:06;97947.16;;;25.56;50.27
42519;BME280;28147;47.520;18.920;2023-09-19T03:28:33;97954.44;;;25.52;49.86
42519;BME280;28147;47.520;18.920;2023-09-19T03:31:00;97943.91;;;25.50;50.47
42519;BME280;28147;47.520;18.920;2023-09-19T03:33:26;97943.75;;;25.59;50.32
42519;BME280;28147;47.520;18.920;2023-09-19T03:35:52;97946.91;;;25.61;50.57
42519;BME280;28147;47.520;18.920;2023-09-19T03:38:18;97950.34;;;25.70;50.47
42519;BME280;28147;47.520;18.920;2023-09-19T03:40:44;97948.03;;;25.72;50.48
42519;BME280;28147;47.520;18.920;2023-09-19T03:43:10;97951.97;;;25.46;50.42
42519;BME280;28147;47.520;18.920;2023-09-19T03:45:35;97949.66;;;25.85;49.50
42519;BME280;28147;47.520;18.920;2023-09-19T03:48:01;97948.50;;;25.74;49.86
42519;BME280;28147;47.520;18.920;2023-09-19T03:50:26;97952.28;;;25.57;50.46
42519;BME280;28147;47.520;18.920;2023-09-19T03:52:56;97945.22;;;25.68;50.33
42519;BME280;28147;47.520;18.920;2023-09-19T03:55:22;97951.59;;;25.72;50.16
42519;BME280;28147;47.520;18.920;2023-09-19T03:57:50;97955.09;;;25.61;51.00
42519;BME280;28147;47.520;18.920;2023-09-19T04:00:16;97964.41;;;25.72;50.17
42519;BME280;28147;47.520;18.920;2023-09-19T04:02:46;97976.13;;;25.72;50.55
42519;BME280;28147;47.520;18.920;2023-09-19T04:05:11;97965.53;;;25.71;50.05
42519;BME280;28147;47.520;18.920;2023-09-19T04:07:37;97963.72;;;25.75;50.09
42519;BME280;28147;47.520;18.920;2023-09-19T04:10:02;97966.00;;;25.73;50.31
42519;BME280;28147;47.520;18.920;2023-09-19T04:12:28;97959.19;;;25.79;50.52
42519;BME280;28147;47.520;18.920;2023-09-19T04:14:54;97956.84;;;26.06;49.39
42519;BME280;28147;47.520;18.920;2023-09-19T04:17:19;97963.59;;;25.71;50.05
42519;BME280;28147;47.520;18.920;2023-09-19T04:19:45;97968.84;;;25.77;50.09
42519;BME280;28147;47.520;18.920;2023-09-19T04:22:11;97974.50;;;25.71;50.68
42519;BME280;28147;47.520;18.920;2023-09-19T04:24:38;97976.81;;;25.82;49.88
42519;BME280;28147;47.520;18.920;2023-09-19T04:27:04;97968.84;;;25.77;50.14
42519;BME280;28147;47.520;18.920;2023-09-19T04:29:29;97975.13;;;25.65;49.51
42519;BME280;28147;47.520;18.920;2023-09-19T04:35:16;97987.72;;;25.57;49.49
42519;BME280;28147;47.520;18.920;2023-09-19T04:37:41;97990.44;;;25.33;49.43
42519;BME280;28147;47.520;18.920;2023-09-19T04:40:08;97993.03;;;25.05;49.79
42519;BME280;28147;47.520;18.920;2023-09-19T04:42:44;97996.09;;;25.15;49.84
42519;BME280;28147;47.520;18.920;2023-09-19T04:45:10;97988.47;;;24.96;50.18
42519;BME280;28147;47.520;18.920;2023-09-19T04:47:36;97999.13;;;24.89;50.64
42519;BME280;28147;47.520;18.920;2023-09-19T04:50:08;97998.28;;;24.76;51.33
42519;BME280;28147;47.520;18.920;2023-09-19T04:52:39;98010.69;;;24.53;51.93
42519;BME280;28147;47.520;18.920;2023-09-19T04:55:04;98014.75;;;24.92;50.86
42519;BME280;28147;47.520;18.920;2023-09-19T04:57:30;98010.78;;;25.47;49.81
42519;BME280;28147;47.520;18.920;2023-09-19T04:59:57;97996.00;;;24.66;51.63
42519;BME280;28147;47.520;18.920;2023-09-19T05:02:22;98006.53;;;24.56;51.28
42519;BME280;28147;47.520;18.920;2023-09-19T05:04:48;98011.59;;;24.90;50.98
42519;BME280;28147;47.520;18.920;2023-09-19T05:07:13;98004.13;;;24.99;50.74
42519;BME280;28147;47.520;18.920;2023-09-19T05:09:39;98010.44;;;24.79;51.93
42519;BME280;28147;47.520;18.920;2023-09-19T05:12:04;98022.88;;;25.01;51.17
42519;BME280;28147;47.520;18.920;2023-09-19T05:14:30;98017.47;;;24.80;51.91
42519;BME280;28147;47.520;18.920;2023-09-19T05:16:55;98027.72;;;25.08;51.19
42519;BME280;28147;47.520;18.920;2023-09-19T05:19:21;98033.63;;;24.97;51.12
42519;BME280;28147;47.520;18.920;2023-09-19T05:21:46;98036.25;;;25.06;50.67
42519;BME280;28147;47.520;18.920;2023-09-19T05:24:12;98041.31;;;25.16;50.11
42519;BME280;28147;47.520;18.920;2023-09-19T05:26:39;98041.72;;;24.73;51.29
42519;BME280;28147;47.520;18.920;2023-09-19T05:29:05;98046.25;;;24.69;50.98
42519;BME280;28147;47.520;18.920;2023-09-19T05:31:33;98045.19;;;24.61;50.88
42519;BME280;28147;47.520;18.920;2023-09-19T05:34:01;98038.97;;;24.94;50.48
42519;BME280;28147;47.520;18.920;2023-09-19T05:36:27;98046.25;;;25.02;49.86
42519;BME280;28147;47.520;18.920;2023-09-19T05:38:54;98037.25;;;24.89;50.16
42519;BME280;28147;47.520;18.920;2023-09-19T05:41:20;98034.31;;;24.61;50.88
42519;BME280;28147;47.520;18.920;2023-09-19T05:43:49;98034.25;;;24.49;50.58
42519;BME280;28147;47.520;18.920;2023-09-19T05:46:15;98049.88;;;24.73;50.66
42519;BME280;28147;47.520;18.920;2023-09-19T05:48:42;98047.97;;;24.32;51.94
42519;BME280;28147;47.520;18.920;2023-09-19T05:51:09;98050.31;;;24.63;51.02
42519;BME280;28147;47.520;18.920;2023-09-19T05:53:35;98049.41;;;24.59;50.74
42519;BME280;28147;47.520;18.920;2023-09-19T05:56:00;98045.69;;;24.42;51.36
42519;BME280;28147;47.520;18.920;2023-09-19T05:58:26;98049.31;;;24.46;51.54
42519;BME280;28147;47.520;18.920;2023-09-19T06:00:52;98050.13;;;24.80;50.45
42519;BME280;28147;47.520;18.920;2023-09-19T06:03:17;98051.53;;;24.53;51.08
42519;BME280;28147;47.520;18.920;2023-09-19T06:05:44;98041.06;;;24.76;50.43
42519;BME280;28147;47.520;18.920;2023-09-19T06:08:11;98049.81;;;24.48;51.35
42519;BME280;28147;47.520;18.920;2023-09-19T06:10:37;98035.59;;;24.22;52.38
42519;BME280;28147;47.520;18.920;2023-09-19T06:13:03;98048.59;;;24.37;52.30
42519;BME280;28147;47.520;18.920;2023-09-19T06:15:35;98047.34;;;24.56;52.67
42519;BME280;28147;47.520;18.920;2023-09-19T06:18:01;98052.53;;;24.48;52.70
42519;BME280;28147;47.520;18.920;2023-09-19T06:20:30;98051.56;;;24.65;52.29
42519;BME280;28147;47.520;18.920;2023-09-19T06:22:56;98068.16;;;24.31;53.37
42519;BME280;28147;47.520;18.920;2023-09-19T06:25:21;98079.50;;;24.12;53.74
42519;BME280;28147;47.520;18.920;2023-09-19T06:27:51;98073.19;;;24.20;54.44
42519;BME280;28147;47.520;18.920;2023-09-19T06:30:21;98067.38;;;23.79;55.75
42519;BME280;28147;47.520;18.920;2023-09-19T06:32:49;98078.84;;;23.85;55.56
42519;BME280;28147;47.520;18.920;2023-09-19T06:35:16;98083.84;;;24.04;55.24
42519;BME280;28147;47.520;18.920;2023-09-19T06:37:42;98075.47;;;24.18;55.33
42519;BME280;28147;47.520;18.920;2023-09-19T06:40:09;98081.06;;;23.92;55.59
42519;BME280;28147;47.520;18.920;2023-09-19T06:42:44;98087.50;;;24.08;55.17
42519;BME280;28147;47.520;18.920;2023-09-19T06:45:12;98084.56;;;23.92;56.09
42519;BME280;28147;47.520;18.920;2023-09-19T06:47:42;98089.16;;;24.00;56.02
42519;BME280;28147;47.520;18.920;2023-09-19T06:50:08;98099.47;;;23.86;56.68
42519;BME280;28147;47.520;18.920;2023-09-19T06:52:42;98092.66;;;24.01;56.13
42519;BME280;28147;47.520;18.920;2023-09-19T06:55:08;98090.22;;;23.87;56.92
42519;BME280;28147;47.520;18.920;2023-09-19T06:57:35;98099.00;;;24.14;55.81
42519;BME280;28147;47.520;18.920;2023-09-19T07:00:01;98104.16;;;24.07;56.57
42519;BME280;28147;47.520;18.920;2023-09-19T07:02:27;98108.84;;;23.97;56.67
42519;BME280;28147;47.520;18.920;2023-09-19T07:04:52;98121.91;;;23.83;57.03
42519;BME280;28147;47.520;18.920;2023-09-19T07:07:18;98120.13;;;23.87;56.61
42519;BME280;28147;47.520;18.920;2023-09-19T07:09:43;98128.78;;;23.81;56.81
42519;BME280;28147;47.520;18.920;2023-09-19T07:12:09;98121.13;;;24.03;56.03
42519;BME280;28147;47.520;18.920;2023-09-19T07:14:34;98136.97;;;23.72;56.27
42519;BME280;28147;47.520;18.920;2023-09-19T07:17:00;98135.06;;;23.72;57.25
42519;BME280;28147;47.520;18.920;2023-09-19T07:19:26;98137.94;;;23.59;57.09
42519;BME280;28147;47.520;18.920;2023-09-19T07:21:54;98127.72;;;23.55;57.39
42519;BME280;28147;47.520;18.920;2023-09-19T07:24:19;98137.69;;;23.43;57.71
42519;BME280;28147;47.520;18.920;2023-09-19T07:26:47;98134.59;;;24.00;55.98
42519;BME280;28147;47.520;18.920;2023-09-19T07:29:13;98132.94;;;23.78;56.61
42519;BME280;28147;47.520;18.920;2023-09-19T07:31:38;98135.19;;;23.76;56.63
42519;BME280;28147;47.520;18.920;2023-09-19T07:34:04;98135.09;;;23.46;56.88
42519;BME280;28147;47.520;18.920;2023-09-19T07:36:34;98136.28;;;23.75;56.19
42519;BME280;28147;47.520;18.920;2023-09-19T07:38:59;98139.09;;;23.96;55.75
42519;BME280;28147;47.520;18.920;2023-09-19T07:41:26;98127.19;;;23.71;56.17
42519;BME280;28147;47.520;18.920;2023-09-19T07:43:52;98143.34;;;23.76;56.26
42519;BME280;28147;47.520;18.920;2023-09-19T07:46:17;98142.72;;;23.79;56.87
42519;BME280;28147;47.520;18.920;2023-09-19T07:48:43;98151.53;;;24.06;56.32
42519;BME280;28147;47.520;18.920;2023-09-19T07:51:14;98157.47;;;23.99;56.60
42519;BME280;28147;47.520;18.920;2023-09-19T07:53:41;98160.91;;;23.78;56.75
42519;BME280;28147;47.520;18.920;2023-09-19T07:56:09;98159.06;;;24.00;56.67
42519;BME280;28147;47.520;18.920;2023-09-19T07:58:35;98164.16;;;24.01;56.70
42519;BME280;28147;47.520;18.920;2023-09-19T08:01:05;98176.19;;;24.30;56.72
42519;BME280;28147;47.520;18.920;2023-09-19T08:03:32;98176.41;;;24.16;56.15
42519;BME280;28147;47.520;18.920;2023-09-19T08:05:57;98179.13;;;24.16;56.07
42519;BME280;28147;47.520;18.920;2023-09-19T08:08:23;98174.91;;;23.98;56.61
42519;BME280;28147;47.520;18.920;2023-09-19T08:10:53;98187.88;;;23.92;57.28
42519;BME280;28147;47.520;18.920;2023-09-19T08:13:21;98186.44;;;23.95;57.07
42519;BME280;28147;47.520;18.920;2023-09-19T08:15:46;98199.66;;;24.05;56.71
42519;BME280;28147;47.520;18.920;2023-09-19T08:18:13;98197.22;;;24.21;56.51
42519;BME280;28147;47.520;18.920;2023-09-19T08:20:39;98185.38;;;24.17;56.94
42519;BME280;28147;47.520;18.920;2023-09-19T08:23:08;98199.25;;;23.94;56.70
42519;BME280;28147;47.520;18.920;2023-09-19T08:25:33;98192.03;;;23.98;56.24
42519;BME280;28147;47.520;18.920;2023-09-19T08:27:59;98203.00;;;24.49;55.29
42519;BME280;28147;47.520;18.920;2023-09-19T08:30:28;98205.50;;;24.24;56.37
42519;BME280;28147;47.520;18.920;2023-09-19T08:32:59;98209.59;;;24.10;56.44
42519;BME280;28147;47.520;18.920;2023-09-19T08:35:28;98222.28;;;23.88;56.98
42519;BME280;28147;47.520;18.920;2023-09-19T08:37:54;98223.88;;;24.27;56.51
42519;BME280;28147;47.520;18.920;2023-09-19T08:40:21;98227.22;;;24.33;56.07
42519;BME280;28147;47.520;18.920;2023-09-19T08:42:50;98240.59;;;24.56;55.67
42519;BME280;28147;47.520;18.920;2023-09-19T08:45:17;98237.88;;;24.47;55.74
42519;BME280;28147;47.520;18.920;2023-09-19T08:47:53;98252.47;;;24.72;55.57
42519;BME280;28147;47.520;18.920;2023-09-19T08:50:26;98251.28;;;24.22;56.62
42519;BME280;28147;47.520;18.920;2023-09-19T08:52:55;98260.22;;;24.23;56.60
42519;BME280;28147;47.520;18.920;2023-09-19T08:55:27;98261.47;;;24.34;56.34
42519;BME280;28147;47.520;18.920;2023-09-19T08:58:00;98260.44;;;24.09;57.15
42519;BME280;28147;47.520;18.920;2023-09-19T09:00:27;98252.31;;;24.00;57.88
42519;BME280;28147;47.520;18.920;2023-09-19T09:02:54;98245.47;;;24.33;57.06
42519;BME280;28147;47.520;18.920;2023-09-19T09:05:22;98236.81;;;24.39;56.33
42519;BME280;28147;47.520;18.920;2023-09-19T09:07:52;98234.75;;;24.36;56.72
42519;BME280;28147;47.520;18.920;2023-09-19T09:10:21;98246.06;;;24.47;57.08
42519;BME280;28147;47.520;18.920;2023-09-19T09:12:53;98241.66;;;24.63;56.25
42519;BME280;28147;47.520;18.920;2023-09-19T09:15:21;98228.31;;;24.91;56.46
42519;BME280;28147;47.520;18.920;2023-09-19T09:17:48;98224.31;;;24.89;56.60
42519;BME280;28147;47.520;18.920;2023-09-19T09:20:15;98226.06;;;24.93;56.38
42519;BME280;28147;47.520;18.920;2023-09-19T09:22:51;98225.41;;;24.96;56.63
42519;BME280;28147;47.520;18.920;2023-09-19T09:25:17;98216.19;;;25.10;55.78
42519;BME280;28147;47.520;18.920;2023-09-19T09:27:43;98218.09;;;24.88;56.28
42519;BME280;28147;47.520;18.920;2023-09-19T09:30:08;98212.72;;;24.80;56.69
42519;BME280;28147;47.520;18.920;2023-09-19T09:32:38;98218.69;;;24.73;56.14
42519;BME280;28147;47.520;18.920;2023-09-19T09:35:07;98234.09;;;24.90;55.73
42519;BME280;28147;47.520;18.920;2023-09-19T09:37:35;98224.94;;;24.94;55.01
42519;BME280;28147;47.520;18.920;2023-09-19T09:40:04;98230.88;;;24.96;55.17
42519;BME280;28147;47.520;18.920;2023-09-19T09:42:42;98233.63;;;24.88;55.63
42519;BME280;28147;47.520;18.920;2023-09-19T09:47:42;98239.59;;;24.81;55.73
42519;BME280;28147;47.520;18.920;2023-09-19T09:50:23;98233.47;;;24.34;57.37
42519;BME280;28147;47.520;18.920;2023-09-19T09:52:57;98232.50;;;24.68;56.45
42519;BME280;28147;47.520;18.920;2023-09-19T09:58:23;98235.13;;;24.56;56.75
42519;BME280;28147;47.520;18.920;2023-09-19T10:00:55;98234.25;;;24.93;57.15
42519;BME280;28147;47.520;18.920;2023-09-19T10:03:35;98228.13;;;24.96;56.85
42519;BME280;28147;47.520;18.920;2023-09-19T10:06:06;98236.00;;;25.52;56.32
42519;BME280;28147;47.520;18.920;2023-09-19T10:09:06;98228.69;;;25.77;54.60
42519;BME280;28147;47.520;18.920;2023-09-19T10:11:32;98231.34;;;25.98;54.98
42519;BME280;28147;47.520;18.920;2023-09-19T10:14:00;98234.06;;;25.86;55.88
42519;BME280;28147;47.520;18.920;2023-09-19T10:16:30;98231.56;;;25.81;55.13
42519;BME280;28147;47.520;18.920;2023-09-19T10:18:58;98238.13;;;25.80;54.32
42519;BME280;28147;47.520;18.920;2023-09-19T10:21:28;98236.63;;;26.15;54.70
42519;BME280;28147;47.520;18.920;2023-09-19T10:23:58;98253.56;;;25.76;54.63
42519;BME280;28147;47.520;18.920;2023-09-19T10:26:26;98253.56;;;25.76;54.46
42519;BME280;28147;47.520;18.920;2023-09-19T10:28:58;98253.53;;;25.96;54.31
42519;BME280;28147;47.520;18.920;2023-09-19T10:31:27;98275.88;;;25.23;55.62
42519;BME280;28147;47.520;18.920;2023-09-19T10:33:55;98266.38;;;25.96;54.28
42519;BME280;28147;47.520;18.920;2023-09-19T10:36:24;98272.28;;;25.98;54.32
42519;BME280;28147;47.520;18.920;2023-09-19T10:38:56;98272.91;;;25.50;55.34
42519;BME280;28147;47.520;18.920;2023-09-19T10:41:29;98269.69;;;25.68;54.38
42519;BME280;28147;47.520;18.920;2023-09-19T10:43:55;98266.50;;;25.45;54.82
42519;BME280;28147;47.520;18.920;2023-09-19T10:46:22;98261.56;;;25.60;54.71
42519;BME280;28147;47.520;18.920;2023-09-19T10:48:50;98262.59;;;25.88;53.79
42519;BME280;28147;47.520;18.920;2023-09-19T10:51:19;98259.78;;;25.10;55.12
42519;BME280;28147;47.520;18.920;2023-09-19T10:54:05;98270.84;;;25.46;54.85
42519;BME280;28147;47.520;18.920;2023-09-19T10:56:36;98275.53;;;25.79;54.42
42519;BME280;28147;47.520;18.920;2023-09-19T10:59:14;98279.91;;;25.71;55.21
42519;BME280;28147;47.520;18.920;2023-09-19T11:04:26;98275.72;;;25.74;54.47
42519;BME280;28147;47.520;18.920;2023-09-19T11:09:56;98285.47;;;25.96;53.68
42519;BME280;28147;47.520;18.920;2023-09-19T11:15:08;98293.69;;;27.06;51.39
42519;BME280;28147;47.520;18.920;2023-09-19T11:17:42;98294.41;;;27.44;50.23
42519;BME280;28147;47.520;18.920;2023-09-19T11:30:52;98277.31;;;27.75;48.12
42519;BME280;28147;47.520;18.920;2023-09-19T11:33:30;98282.41;;;27.88;46.19
42519;BME280;28147;47.520;18.920;2023-09-19T11:36:11;98291.44;;;26.96;47.06
42519;BME280;28147;47.520;18.920;2023-09-19T11:43:50;98273.47;;;27.63;46.95
42519;BME280;28147;47.520;18.920;2023-09-19T11:46:19;98268.53;;;28.29;46.35
42519;BME280;28147;47.520;18.920;2023-09-19T11:48:50;98270.97;;;28.46;46.21
42519;BME280;28147;47.520;18.920;2023-09-19T11:51:17;98268.03;;;28.55;45.86
42519;BME280;28147;47.520;18.920;2023-09-19T11:53:58;98278.63;;;28.56;45.50
42519;BME280;28147;47.520;18.920;2023-09-19T11:56:26;98272.94;;;27.58;46.96
42519;BME280;28147;47.520;18.920;2023-09-19T11:58:57;98279.88;;;28.43;44.77
42519;BME280;28147;47.520;18.920;2023-09-19T12:01:32;98276.75;;;27.69;45.55
42519;BME280;28147;47.520;18.920;2023-09-19T12:04:00;98276.25;;;28.23;45.04
42519;BME280;28147;47.520;18.920;2023-09-19T12:06:28;98287.09;;;28.51;44.47
42519;BME280;28147;47.520;18.920;2023-09-19T12:09:04;98282.41;;;28.36;44.48
42519;BME280;28147;47.520;18.920;2023-09-19T12:11:41;98274.91;;;28.49;45.61
42519;BME280;28147;47.520;18.920;2023-09-19T12:14:09;98280.59;;;27.80;45.85
42519;BME280;28147;47.520;18.920;2023-09-19T12:16:35;98282.50;;;28.08;45.09
42519;BME280;28147;47.520;18.920;2023-09-19T12:19:22;98283.91;;;28.02;45.10
42519;BME280;28147;47.520;18.920;2023-09-19T12:22:02;98291.28;;;27.57;45.46
42519;BME280;28147;47.520;18.920;2023-09-19T12:24:32;98298.47;;;27.50;45.41
42519;BME280;28147;47.520;18.920;2023-09-19T12:27:05;98288.22;;;27.59;45.97
42519;BME280;28147;47.520;18.920;2023-09-19T12:29:49;98294.38;;;27.56;46.26
42519;BME280;28147;47.520;18.920;2023-09-19T12:32:15;98308.56;;;27.33;47.09
42519;BME280;28147;47.520;18.920;2023-09-19T12:34:51;98290.16;;;27.18;47.52
42519;BME280;28147;47.520;18.920;2023-09-19T12:37:17;98296.22;;;27.11;47.08
42519;BME280;28147;47.520;18.920;2023-09-19T12:39:51;98305.78;;;27.17;47.23
42519;BME280;28147;47.520;18.920;2023-09-19T12:42:26;98316.31;;;27.31;46.99
42519;BME280;28147;47.520;18.920;2023-09-19T12:45:00;98309.09;;;26.86;47.44
42519;BME280;28147;47.520;18.920;2023-09-19T12:47:27;98299.00;;;27.27;46.82
42519;BME280;28147;47.520;18.920;2023-09-19T12:50:13;98300.19;;;27.14;46.92
42519;BME280;28147;47.520;18.920;2023-09-19T12:52:48;98298.16;;;26.99;46.53
42519;BME280;28147;47.520;18.920;2023-09-19T12:55:27;98312.06;;;26.69;46.96
42519;BME280;28147;47.520;18.920;2023-09-19T13:00:31;98303.75;;;26.78;47.22
42519;BME280;28147;47.520;18.920;2023-09-19T13:03:27;98303.47;;;27.07;46.39
42519;BME280;28147;47.520;18.920;2023-09-19T13:06:02;98302.66;;;27.31;45.99
42519;BME280;28147;47.520;18.920;2023-09-19T13:08:38;98308.09;;;27.31;46.23
42519;BME280;28147;47.520;18.920;2023-09-19T13:16:10;98304.22;;;27.45;45.87
42519;BME280;28147;47.520;18.920;2023-09-19T13:18:50;98310.50;;;27.61;45.13
42519;BME280;28147;47.520;18.920;2023-09-19T13:21:17;98299.34;;;27.66;45.10
42519;BME280;28147;47.520;18.920;2023-09-19T13:23:53;98298.69;;;27.29;45.60
42519;BME280;28147;47.520;18.920;2023-09-19T13:26:21;98303.41;;;27.44;44.65
42519;BME280;28147;47.520;18.920;2023-09-19T13:28:48;98297.47;;;27.82;44.15
42519;BME280;28147;47.520;18.920;2023-09-19T13:31:14;98315.13;;;27.73;44.81
42519;BME280;28147;47.520;18.920;2023-09-19T13:33:44;98312.34;;;27.57;44.40
42519;BME280;28147;47.520;18.920;2023-09-19T13:36:11;98314.50;;;27.23;45.15
42519;BME280;28147;47.520;18.920;2023-09-19T13:38:37;98307.94;;;27.00;45.12
42519;BME280;28147;47.520;18.920;2023-09-19T13:41:02;98313.88;;;27.14;45.23
42519;BME280;28147;47.520;18.920;2023-09-19T13:43:28;98322.00;;;27.38;44.61
42519;BME280;28147;47.520;18.920;2023-09-19T13:45:54;98328.44;;;27.58;44.54
42519;BME280;28147;47.520;18.920;2023-09-19T13:48:20;98328.97;;;27.64;44.41
42519;BME280;28147;47.520;18.920;2023-09-19T13:50:48;98331.56;;;27.73;44.19